This is the latest recevied weather packets stored in our database for station/object AA0PB. If no packets are shown the sender has not sent any weather packets the latest 10 day(s).
| Time | Temp. | Humidity | Pressure | Rain* | Wind** | Luminosity | Snow |
|---|---|---|---|---|---|---|---|
| 1777562214 | 15° C | 69% | 1019.7 hPa | 0 mm | - | 215 W/m² | - |
| 1777561912 | 15.56° C | 70% | 1020.1 hPa | 0 mm | - | 95 W/m² | - |
| 1777561609 | 14.44° C | 74% | 1019.8 hPa | 0 mm | - | 88 W/m² | - |
| 1777561305 | 13.89° C | 75% | 1019.9 hPa | 0 mm | - | 83 W/m² | - |
| 1777561005 | 13.89° C | 75% | 1019.9 hPa | 0 mm | - | 86 W/m² | - |
| 1777560700 | 13.89° C | 76% | 1020 hPa | 0 mm | - | 73 W/m² | - |
| 1777560398 | 13.33° C | 79% | 1020 hPa | 0 mm | - | 67 W/m² | - |
| 1777560096 | 12.78° C | 80% | 1019.8 hPa | 0 mm | - | 65 W/m² | - |
| 1777559792 | 12.78° C | 79% | 1019.9 hPa | 0 mm | - | 69 W/m² | - |
| 1777559489 | 11.67° C | 84% | 1019.8 hPa | 0 mm | - | 64 W/m² | - |
| 1777559186 | 10.56° C | 89% | 1019.9 hPa | 0 mm | - | 63 W/m² | - |
| 1777558885 | 10.56° C | 89% | 1019.7 hPa | 0 mm | - | 60 W/m² | - |
| 1777558581 | 10° C | 89% | 1019.4 hPa | 0 mm | - | 57 W/m² | - |
| 1777558277 | 10° C | 90% | 1019.6 hPa | 0 mm | - | 53 W/m² | - |
| 1777557974 | 9.44° C | 91% | 1019.6 hPa | 0 mm | - | 48 W/m² | - |
| 1777557671 | 8.89° C | 94% | 1019.7 hPa | 0 mm | - | 49 W/m² | - |
| 1777557367 | 8.33° C | 95% | 1019.7 hPa | 0 mm | - | 41 W/m² | - |
| 1777557063 | 7.78° C | 96% | 1019.5 hPa | 0 mm | - | 38 W/m² | - |
| 1777556758 | 7.78° C | 96% | 1019.5 hPa | 0 mm | - | 32 W/m² | - |
| 1777556456 | 7.22° C | 97% | 1019.8 hPa | 0 mm | - | 26 W/m² | - |
| 1777556155 | 7.22° C | 97% | 1019.6 hPa | 0 mm | - | 20 W/m² | - |
| 1777555851 | 7.22° C | 97% | 1019.7 hPa | 0 mm | - | 17 W/m² | - |
| 1777555547 | 7.22° C | 97% | 1019.5 hPa | 0 mm | - | 14 W/m² | - |
| 1777555244 | 7.22° C | 97% | 1019.6 hPa | 0 mm | - | 11 W/m² | - |
| 1777554941 | 7.22° C | 97% | 1019.7 hPa | 0 mm | - | 8 W/m² | - |
* Rain latest hour (hover to see other rain measurements)
** Current wind speed in m/s (hover to see current wind gust speed)